• Join FlightAware (Why Join?)
  • Login
  • US Flag 
03:10PM EDT


 

Airport Tracker/Info


-or-


 

Live Flight TrackerFlight Track Log ✈ FDX1413 ✈ 11-May-2013 ✈ KMEM - PHNL

Flight Track Log - Related Links

Times and Time Zones

All times are in EDT time to prevent confusion due to time zone crossing. See the FDX1413 flight status page for this flight to view local times or setup timezone preferences in your user account.

Time Position Orientation Groundspeed Altitude Reporting Facility
EDT Latitude Longitude Course Direction KTS MPH feet Rate Location/Type
05:26AM 35.0667 -89.9667 321° Northwest 177 204 1,300  Level KMEM
05:27AM 35.1000 -90.0000 321° Northwest 236 272 1,900 2,220 Climbing KMEM
05:28AM 35.1333 -90.0667 301° West 274 315 4,900 3,240 Climbing KMEM
05:29AM 35.1167 -90.1667 259° West 275 316 8,400 2,640 Climbing KMEM
05:30AM 35.1053 -90.2808 263° West 291 335 11,200 1,920 Climbing Memphis Center
05:31AM 35.0867 -90.4053 260° West 341 392 12,900 2,100 Climbing Memphis Center
05:32AM 35.0678 -90.5397 260° West 396 456 15,500 2,760 Climbing Memphis Center
05:33AM 35.0467 -90.6842 260° West 425 489 18,500 2,640 Climbing Memphis Center
05:34AM 35.0294 -90.8289 262° West 430 495 20,800 2,340 Climbing Memphis Center
05:35AM 35.0456 -90.9811 277° West 442 509 23,200 2,400 Climbing Memphis Center
05:36AM 35.0614 -91.1358 277° West 458 527 25,600 3,000 Climbing Memphis Center
05:37AM 35.0831 -91.2986 279° West 458 527 29,300 2,700 Climbing Memphis Center
05:38AM 35.0967 -91.4331 277° West 429 494 31,000 1,320 Climbing Memphis Center
05:39AM 35.1119 -91.5731 278° West 424 488 32,000 480 Climbing Memphis Center
05:40AM 35.1272 -91.7103 278° West 419 482 32,000  Level Memphis Center
05:41AM 35.1425 -91.8528 278° West 419 482 32,000  Level Memphis Center
05:42AM 35.1594 -91.9878 279° West 414 476 32,000  Level Memphis Center
05:43AM 35.1742 -92.1278 277° West 414 476 32,000  Level Memphis Center
05:44AM 35.1889 -92.2678 277° West 419 482 32,000  Level Memphis Center
05:45AM 35.2053 -92.4103 278° West 419 482 32,100 840 Climbing Memphis Center
05:46AM 35.2197 -92.5481 277° West 425 489 33,700 900 Climbing Memphis Center
05:47AM 35.2339 -92.6856 277° West 425 489 34,000 120 Climbing Memphis Center
05:48AM 35.2481 -92.8131 278° West 425 489 34,000  Level Memphis Center
05:49AM 35.2600 -92.9483 276° West 419 482 34,000  Level Memphis Center
05:50AM 35.2758 -93.0911 278° West 419 482 34,000  Level Memphis Center
05:51AM 35.2872 -93.2264 276° West 419 482 34,000  Level Memphis Center
05:52AM 35.3067 -93.3847 279° West 419 482 34,000  Level Memphis Center
05:53AM 35.3161 -93.5047 276° West 419 482 34,000  Level Memphis Center
05:54AM 35.3292 -93.6453 277° West 414 476 34,000  Level Memphis Center
05:55AM 35.3422 -93.7831 277° West 414 476 34,000  Level Memphis Center
05:56AM 35.3569 -93.9236 277° West 414 476 34,000  Level Memphis Center
05:57AM 35.3694 -94.0644 276° West 414 476 34,100  Climbing Memphis Center
05:58AM 35.3819 -94.2075 276° West 424 488 34,000 -60 Descending Memphis Center
05:59AM 35.3872 -94.3681 272° West 430 495 34,000  Level Memphis Center
06:00AM 35.3889 -94.5108 271° West 430 495 34,000  Level Memphis Center
06:02AM 35.3886 -94.7628 270° West 414 476 34,000  Level Fort Worth Center
06:03AM 35.3894 -94.9028 270° West 414 476 34,000  Level Fort Worth Center
06:04AM 35.3881 -95.0481 269° West 421 484 34,100  Climbing Fort Worth Center
06:05AM 35.3908 -95.1906 271° West 421 484 34,100  Level Fort Worth Center
06:11AM 35.3840 -96.0560 271° West 433 498 34,100 -60 Level FlightAware
06:12AM 35.3830 -96.1640 269° West 438 504 34,000 -120 Descending FlightAware
06:13AM 35.3820 -96.2630 269° West 441 507 34,000 60 Level FlightAware
06:13AM 35.3810 -96.3610 269° West 442 509 34,100 60 Climbing FlightAware
06:14AM 35.3790 -96.4730 269° West 438 504 34,100 -120 Level FlightAware
06:15AM 35.3780 -96.5720 269° West 433 498 34,000 -120 Descending FlightAware
06:15AM 35.3760 -96.6720 269° West 433 498 34,000  Level FlightAware
06:16AM 35.3750 -96.7830 269° West 436 502 34,000  Level FlightAware
06:17AM 35.3730 -96.8810 269° West 435 501 34,000  Level FlightAware
06:18AM 35.3710 -96.9900 269° West 437 503 34,000  Level FlightAware
06:18AM 35.3690 -97.0850 269° West 437 503 34,000  Level FlightAware
06:19AM 35.3680 -97.1880 269° West 438 504 34,000 60 Level FlightAware
06:20AM 35.3660 -97.3000 269° West 440 506 34,100 60 Climbing FlightAware
06:20AM 35.3630 -97.4020 268° West 441 507 34,100 -120 Level FlightAware
06:21AM 35.3610 -97.5140 269° West 442 509 34,000  Descending FlightAware
06:22AM 35.3590 -97.6120 269° West 442 509 34,100 60 Climbing FlightAware
06:23AM 35.3560 -97.7130 268° West 442 509 34,100 -120 Level FlightAware
06:23AM 35.3560 -97.8250 270° West 443 510 34,000 -120 Descending FlightAware
06:24AM 35.3540 -97.9400 269° West 444 511 34,000  Level FlightAware
06:25AM 35.3520 -98.0400 269° West 444 511 34,000  Level FlightAware
06:25AM 35.3510 -98.1330 269° West 445 512 34,000  Level FlightAware
06:26AM 35.3480 -98.2170 268° West 445 512 34,000  Level FlightAware
06:27AM 35.3450 -98.3240 268° West 445 512 34,000  Level FlightAware
06:27AM 35.3430 -98.4100 268° West 445 512 34,000  Level FlightAware
06:28AM 35.3400 -98.4950 268° West 445 512 34,000  Level FlightAware
06:29AM 35.3380 -98.5810 268° West 445 512 34,000  Level FlightAware
06:30AM 35.3350 -98.6880 268° West 445 512 34,000  Level FlightAware
06:30AM 35.3320 -98.7740 268° West 445 512 34,000  Level FlightAware
06:31AM 35.3300 -98.8600 268° West 445 512 34,000  Level FlightAware
06:32AM 35.3280 -98.9460 268° West 445 512 34,000  Level FlightAware
06:32AM 35.3250 -99.0310 268° West 445 512 34,000  Level FlightAware
06:33AM 35.3220 -99.1390 268° West 445 512 34,000  Level FlightAware
06:34AM 35.3200 -99.2240 268° West 445 512 34,000  Level FlightAware
06:34AM 35.3170 -99.3100 268° West 445 512 34,000  Level FlightAware
06:35AM 35.3150 -99.3960 268° West 445 512 34,000 60 Level FlightAware
06:36AM 35.3114 -99.7789 268° West 458 527 34,100  Climbing Albuquerque Center
06:37AM 35.3064 -99.9367 268° West 461 531 34,100 -60 Level Albuquerque Center
06:38AM 35.3014 -100.0931 268° West 458 527 34,000 -60 Descending Albuquerque Center
06:39AM 35.2964 -100.2458 268° West 451 519 34,000  Level Albuquerque Center
06:40AM 35.2914 -100.3992 268° West 449 517 34,000  Level Albuquerque Center
06:41AM 35.2847 -100.5536 267° West 452 520 34,000  Level Albuquerque Center
06:42AM 35.2800 -100.6869 268° West 459 528 34,100  Climbing Albuquerque Center
06:43AM 35.2733 -100.8467 267° West 468 539 34,100  Level Albuquerque Center
06:44AM 35.2669 -101.0058 267° West 471 542 34,100 -60 Level Albuquerque Center
06:45AM 35.2589 -101.1967 267° West 469 540 34,000 -60 Descending Albuquerque Center
06:46AM 35.2525 -101.3519 267° West 467 537 34,000  Level Albuquerque Center
06:47AM 35.2456 -101.5125 267° West 471 542 34,000  Level Albuquerque Center
06:48AM 35.2369 -101.6756 266° West 474 545 34,000  Level Albuquerque Center
06:49AM 35.2317 -101.8136 267° West 480 552 34,100  Climbing Albuquerque Center
06:50AM 35.2292 -101.9875 269° West 485 558 34,100  Level Albuquerque Center
06:51AM 35.2253 -102.1547 268° West 490 564 34,100 -60 Level Albuquerque Center
06:52AM 35.2214 -102.3208 268° West 491 565 34,000 -60 Descending Albuquerque Center
06:53AM 35.2172 -102.4869 268° West 490 564 34,000  Level Albuquerque Center
06:54AM 35.2119 -102.6550 268° West 495 570 34,000  Level Albuquerque Center
06:55AM 35.2078 -102.8208 268° West 491 565 34,000  Level Albuquerque Center
06:56AM 35.2033 -102.9897 268° West 490 564 34,000  Level Albuquerque Center
06:57AM 35.1975 -103.1586 268° West 493 567 34,100  Climbing Albuquerque Center
06:58AM 35.1928 -103.3272 268° West 493 567 34,100 -60 Level Albuquerque Center
06:59AM 35.1867 -103.4939 267° West 489 563 34,000 -60 Descending Albuquerque Center
07:00AM 35.1806 -103.6619 268° West 491 565 34,000  Level Albuquerque Center
07:01AM 35.1758 -103.8297 268° West 490 564 34,000  Level Albuquerque Center
07:02AM 35.1714 -103.9833 268° West 489 563 34,000  Level Albuquerque Center
07:03AM 35.1664 -104.1489 268° West 489 563 34,000  Level Albuquerque Center
07:04AM 35.1608 -104.3139 268° West 488 562 34,000  Level Albuquerque Center
07:05AM 35.1533 -104.4814 267° West 493 567 34,100  Climbing Albuquerque Center
07:06AM 35.1467 -104.6533 267° West 494 568 34,100 -60 Level Albuquerque Center
07:07AM 35.1400 -104.8206 267° West 489 563 34,000 -60 Descending Albuquerque Center
07:08AM 35.1331 -104.9864 267° West 486 559 34,000  Level Albuquerque Center
07:09AM 35.1269 -105.1525 267° West 485 558 34,000  Level Albuquerque Center
07:15AM 35.0790 -106.1640 267° West 485 558 34,000  Level FlightAware
07:16AM 35.0720 -106.2960 266° West 492 566 34,000 60 Level FlightAware
07:17AM 35.0660 -106.4130 266° West 497 572 34,100 60 Climbing FlightAware
07:17AM 35.0590 -106.5370 266° West 501 577 34,100  Level FlightAware
07:18AM 35.0540 -106.6470 267° West 500 575 34,100 -120 Level FlightAware
07:19AM 35.0460 -106.7780 266° West 494 568 34,000 -120 Descending FlightAware
07:19AM 35.0410 -106.8860 267° West 491 565 34,000  Level FlightAware
07:20AM 35.0390 -106.9960 269° West 487 560 34,000  Level FlightAware
07:21AM 35.0360 -107.1170 268° West 487 560 34,000  Level FlightAware
07:22AM 35.0340 -107.2300 269° West 489 563 34,000  Level FlightAware
07:22AM 35.0300 -107.3540 268° West 492 566 34,000 60 Level FlightAware
07:23AM 35.0270 -107.4650 268° West 495 570 34,100 60 Climbing FlightAware
07:24AM 35.0240 -107.5770 268° West 497 572 34,100  Level FlightAware
07:24AM 35.0200 -107.7030 268° West 495 570 34,100  Level FlightAware
07:25AM 35.0160 -107.8140 268° West 490 564 34,100 -120 Level FlightAware
07:26AM 35.0120 -107.9350 268° West 488 562 34,000 -120 Descending FlightAware
07:26AM 35.0080 -108.0450 267° West 485 558 34,000  Level FlightAware
07:27AM 35.0050 -108.1570 268° West 486 559 34,000  Level FlightAware
07:28AM 35.0010 -108.2750 268° West 490 564 34,000  Level FlightAware
07:29AM 34.9970 -108.3910 268° West 495 570 34,000 60 Level FlightAware
07:29AM 34.9920 -108.5170 267° West 495 570 34,100 60 Climbing FlightAware
07:30AM 34.9880 -108.6160 267° West 495 570 34,100  Level FlightAware
07:31AM 34.9840 -108.7110 267° West 495 570 34,100  Level FlightAware
07:31AM 34.9800 -108.8060 267° West 495 570 34,100  Level FlightAware
07:32AM 34.9750 -108.9010 266° West 495 570 34,100  Level FlightAware
07:33AM 34.9700 -109.0200 267° West 495 570 34,100  Level FlightAware
07:33AM 34.9660 -109.1150 267° West 495 570 34,100 -120 Level FlightAware
07:34AM 34.9530 -109.3470 266° West 493 567 34,000  Descending FlightAware
07:35AM 34.9440 -109.4870 266° West 494 568 34,100 60 Climbing FlightAware
07:36AM 34.9360 -109.6000 265° West 490 564 34,100 -120 Level FlightAware
07:37AM 34.9280 -109.7180 265° West 487 560 34,000 -120 Descending FlightAware
07:37AM 34.9220 -109.8050 265° West 487 560 34,000  Level FlightAware
07:38AM 34.9150 -109.8980 265° West 487 560 34,000  Level FlightAware
07:39AM 34.9040 -110.0570 265° West 481 554 34,000  Level FlightAware
07:39AM 34.8960 -110.1650 265° West 482 555 34,000  Level FlightAware
07:40AM 34.8870 -110.2900 265° West 484 557 34,000 60 Level FlightAware
07:41AM 34.8770 -110.3980 264° West 485 558 34,100 60 Climbing FlightAware
07:41AM 34.8630 -110.5060 261° West 487 560 34,100 -120 Level FlightAware
07:42AM 34.8480 -110.6290 262° West 488 562 34,000 -120 Descending FlightAware
07:43AM 34.8360 -110.7350 262° West 489 563 34,000  Level FlightAware
07:43AM 34.8220 -110.8440 261° West 490 564 34,000  Level FlightAware
07:44AM 34.8060 -110.9690 261° West 490 564 34,000  Level FlightAware
07:45AM 34.7930 -111.0780 262° West 491 565 34,000  Level FlightAware
07:46AM 34.7790 -111.1840 261° West 493 567 34,000  Level FlightAware
07:46AM 34.7640 -111.3100 262° West 493 567 34,000  Level FlightAware
07:47AM 34.7500 -111.4170 261° West 494 568 34,000 60 Level FlightAware
07:48AM 34.7340 -111.5460 261° West 496 571 34,100 60 Climbing FlightAware
07:48AM 34.7200 -111.6530 261° West 493 567 34,100  Level FlightAware
07:49AM 34.7060 -111.7600 261° West 493 567 34,100 -120 Level FlightAware
07:50AM 34.6900 -111.8830 261° West 493 567 34,000 -120 Descending FlightAware
07:50AM 34.6750 -111.9920 261° West 490 564 34,000  Level FlightAware
07:51AM 34.6590 -112.1170 261° West 487 560 34,000  Level FlightAware
07:52AM 34.6440 -112.2270 261° West 483 556 34,000  Level FlightAware
07:53AM 34.6290 -112.3420 261° West 485 558 34,000  Level FlightAware
07:53AM 34.6140 -112.4500 260° West 486 559 34,000  Level FlightAware
07:54AM 34.5990 -112.5570 260° West 487 560 34,000  Level FlightAware
07:55AM 34.5820 -112.6820 261° West 489 563 34,000  Level FlightAware
07:55AM 34.5670 -112.7900 260° West 492 566 34,000 60 Level FlightAware
07:56AM 34.5500 -112.9100 260° West 493 567 34,100 60 Climbing FlightAware
07:57AM 34.5340 -113.0220 260° West 492 566 34,100 -120 Level FlightAware
07:57AM 34.5190 -113.1300 260° West 488 562 34,000 -120 Descending FlightAware
07:58AM 34.5020 -113.2510 260° West 488 562 34,000  Level FlightAware
07:59AM 34.4860 -113.3590 260° West 486 559 34,000  Level FlightAware
08:00AM 34.4690 -113.4800 260° West 487 560 34,000  Level FlightAware
08:00AM 34.4530 -113.5870 260° West 486 559 34,000  Level FlightAware
08:01AM 34.4350 -113.7080 260° West 485 558 34,000  Level FlightAware
08:02AM 34.4190 -113.8150 260° West 488 562 34,000  Level FlightAware
08:02AM 34.4030 -113.9230 260° West 492 566 34,000 60 Level FlightAware
08:03AM 34.3850 -114.0450 260° West 494 568 34,100 60 Climbing FlightAware
08:04AM 34.3680 -114.1540 259° West 492 566 34,100  Level FlightAware
08:05AM 34.3500 -114.2780 260° West 491 565 34,100 -120 Level FlightAware
08:05AM 34.3370 -114.3810 261° West 486 559 34,000 -120 Descending FlightAware
08:06AM 34.3330 -114.4460 266° West 486 559 34,000  Level FlightAware
08:07AM 34.3230 -114.5590 264° West 485 558 34,000  Level FlightAware
08:07AM 34.3140 -114.6690 264° West 485 558 34,000  Level FlightAware
08:08AM 34.3060 -114.7610 264° West 485 558 34,000  Level FlightAware
08:09AM 34.2980 -114.8530 264° West 485 558 34,000  Level FlightAware
08:09AM 34.2900 -114.9450 264° West 485 558 34,000  Level FlightAware
08:10AM 34.2800 -115.0600 264° West 485 558 34,000 60 Level FlightAware
08:11AM 34.2610 -115.2920 264° West 487 560 34,100  Climbing FlightAware
08:12AM 34.2500 -115.4160 264° West 483 556 34,000 -60 Descending FlightAware
08:12AM 34.2370 -115.5600 264° West 482 555 34,000  Level FlightAware
08:13AM 34.2280 -115.6520 263° West 487 560 34,000  Level FlightAware
08:14AM 34.2150 -115.7910 264° West 497 572 34,000 60 Level FlightAware
08:15AM 34.2040 -115.9020 263° West 497 572 34,100 60 Climbing FlightAware
08:15AM 34.1950 -116.0000 264° West 491 565 34,100 -120 Level FlightAware
08:16AM 34.1850 -116.1010 263° West 490 564 34,000 -120 Descending FlightAware
08:17AM 34.1710 -116.2370 263° West 487 560 34,000  Level FlightAware
08:17AM 34.1580 -116.3750 264° West 482 555 34,000  Level FlightAware
08:18AM 34.1480 -116.4680 263° West 483 556 34,000  Level FlightAware
08:19AM 34.1360 -116.5890 263° West 488 562 34,000  Level FlightAware
08:19AM 34.1260 -116.6870 263° West 491 565 34,000 60 Level FlightAware
08:20AM 34.1110 -116.8310 263° West 492 566 34,100 60 Climbing FlightAware
08:21AM 34.0990 -116.9430 263° West 492 566 34,100 -120 Level FlightAware
08:22AM 34.0860 -117.0680 263° West 488 562 34,000 -120 Descending FlightAware
08:22AM 34.0750 -117.1760 263° West 489 563 34,000  Level FlightAware
08:23AM 34.0620 -117.2980 263° West 498 573 34,000  Level FlightAware
08:24AM 34.0510 -117.3950 262° West 505 581 34,000 60 Level FlightAware
08:24AM 34.0370 -117.5210 262° West 508 585 34,100 60 Climbing FlightAware
08:25AM 34.0230 -117.6470 262° West 504 580 34,100 -120 Level FlightAware
08:26AM 34.0100 -117.7600 262° West 498 573 34,000 -120 Descending FlightAware
08:27AM 33.9970 -117.8780 262° West 494 568 34,000  Level FlightAware
08:27AM 33.9850 -117.9870 262° West 489 563 34,000  Level FlightAware
08:28AM 33.9730 -118.0940 262° West 485 558 34,000  Level FlightAware
08:29AM 33.9580 -118.2170 262° West 483 556 34,000 300 Level FlightAware
08:29AM 33.9460 -118.3240 262° West 489 563 34,500 960 Climbing FlightAware
08:30AM 33.9330 -118.4320 262° West 491 565 35,300 1,020 Climbing FlightAware
08:31AM 33.9220 -118.5510 264° West 485 558 36,000 480 Climbing FlightAware
08:31AM 33.9130 -118.6580 264° West 484 557 36,000  Level FlightAware
08:32AM 33.9030 -118.7650 264° West 487 560 36,000  Level FlightAware
08:33AM 33.8930 -118.8890 264° West 485 558 36,000  Level FlightAware
08:34AM 33.8830 -118.9940 263° West 486 559 36,000  Level FlightAware
08:34AM 33.8720 -119.1140 264° West 483 556 36,000  Level FlightAware
08:35AM 33.8610 -119.2230 263° West 481 554 36,000  Level FlightAware
08:36AM 33.8520 -119.3270 264° West 480 552 36,000  Level FlightAware
08:36AM 33.8400 -119.4460 263° West 481 554 36,000  Level FlightAware
08:37AM 33.8300 -119.5530 264° West 484 557 36,000  Level FlightAware
08:38AM 33.8180 -119.6730 263° West 485 558 36,000  Level FlightAware
08:38AM 33.8070 -119.7830 263° West 487 560 36,000 60 Level FlightAware
08:39AM 33.7950 -119.9040 263° West 487 560 36,100 60 Climbing FlightAware
08:40AM 33.7850 -120.0090 263° West 488 562 36,100  Level FlightAware
08:41AM 33.7740 -120.1120 263° West 489 563 36,100 -120 Level FlightAware
08:41AM 33.7610 -120.2370 263° West 486 559 36,000 -120 Descending FlightAware
08:42AM 33.7490 -120.3440 262° West 484 557 36,000  Level FlightAware
08:43AM 33.7330 -120.4930 263° West 479 551 36,000  Level FlightAware
08:44AM 33.7170 -120.6370 262° West 477 549 36,000  Level FlightAware
08:44AM 33.7060 -120.7360 262° West 474 545 36,000  Level FlightAware
08:45AM 33.6880 -120.8940 262° West 477 549 36,000  Level FlightAware
08:46AM 33.6740 -121.0080 262° West 477 549 36,000  Level FlightAware
08:47AM 33.6640 -121.0970 262° West 477 549 36,000 60 Level FlightAware
08:48AM 33.6470 -121.2450 262° West 477 549 36,100 60 Climbing FlightAware
08:48AM 33.6370 -121.3350 262° West 477 549 36,100  Level FlightAware
08:49AM 33.6260 -121.4240 262° West 477 549 36,100  Level FlightAware
08:50AM 33.6130 -121.5350 262° West 477 549 36,100  Level FlightAware
08:51AM 33.6030 -121.6250 262° West 477 549 36,100  Level FlightAware
08:51AM 33.5920 -121.7140 262° West 477 549 36,100  Level FlightAware
08:52AM 33.5820 -121.8030 262° West 477 549 36,100  Level FlightAware
08:53AM 33.5710 -121.8920 262° West 477 549 36,100  Level FlightAware
08:53AM 33.5580 -122.0040 262° West 477 549 36,100  Level FlightAware
08:54AM 33.5480 -122.0930 262° West 477 549 36,100  Level FlightAware
08:55AM 33.5370 -122.1820 262° West 477 549 36,100  Level FlightAware
08:55AM 33.5270 -122.2710 262° West 477 549 36,100  Level FlightAware
08:56AM 33.5160 -122.3600 262° West 477 549 36,100  Level FlightAware
08:57AM 33.5060 -122.4490 262° West 477 549 36,100 -60 Level FlightAware
09:04AM 33.2980 -123.4347 255° West  Level FlightAware Approximate
09:05AM 33.2663 -123.5808 256° West  Level FlightAware Approximate
09:06AM 33.2354 -123.7271 256° West  Level FlightAware Approximate
09:07AM 33.2043 -123.8733 256° West  Level FlightAware Approximate
09:08AM 33.1730 -124.0193 256° West  Level FlightAware Approximate
09:09AM 33.1416 -124.1653 256° West  Level FlightAware Approximate
09:09AM 33.0667 -124.5167 255° West 460 529 36,000  Level Oakland Oceanic (ODAPS)
09:10AM 33.1100 -124.3111 256° West  Level FlightAware Approximate
09:10AM 33.0500 -124.5833 255° West 459 528 36,000  Level Oakland Oceanic (ODAPS)
09:11AM 33.0729 -124.4542 239° Southwest  Level FlightAware Approximate
09:12AM 33.0481 -124.5999 255° West  Level FlightAware Approximate
09:13AM 33.0155 -124.7452 255° West  Level FlightAware Approximate
09:14AM 32.9827 -124.8905 255° West  Level FlightAware Approximate
09:15AM 32.9497 -125.0357 255° West  Level FlightAware Approximate
09:16AM 32.8521 -125.4540 255° West 459 528 36,000  Level FlightAware Transoceanic
09:17AM 32.8185 -125.5987 255° West 459 528 36,000  Level FlightAware Transoceanic
09:18AM 32.7848 -125.7433 254° West 459 528 36,000  Level FlightAware Transoceanic
09:19AM 32.7509 -125.8878 254° West 459 528 36,000  Level FlightAware Transoceanic
09:20AM 32.7168 -126.0322 254° West 459 528 36,000  Level FlightAware Transoceanic
09:21AM 32.6826 -126.1765 254° West 459 528 36,000  Level FlightAware Transoceanic
09:22AM 32.6482 -126.3207 254° West 459 528 36,000  Level FlightAware Transoceanic
09:23AM 32.6136 -126.4648 254° West 459 528 36,000  Level FlightAware Transoceanic
09:24AM 32.5789 -126.6087 254° West 459 528 36,000  Level FlightAware Transoceanic
09:24AM 32.5667 -126.6500 254° West 456 525 36,000  Level Oakland Oceanic (ODAPS)
09:25AM 32.5440 -126.7526 254° West 459 528 36,000  Level FlightAware Transoceanic
09:26AM 32.5089 -126.8963 254° West 459 528 36,000  Level FlightAware Transoceanic
09:27AM 32.4737 -127.0399 254° West 459 528 36,000  Level FlightAware Transoceanic
09:28AM 32.4383 -127.1834 254° West 459 528 36,000  Level FlightAware Transoceanic
09:29AM 32.4028 -127.3268 254° West 459 528 36,000  Level FlightAware Transoceanic
09:30AM 32.3565 -127.5048 254° West 456 525 36,000  Level FlightAware Transoceanic
09:31AM 32.3209 -127.6469 253° West 456 525 36,000  Level FlightAware Transoceanic
09:32AM 32.2852 -127.7889 253° West 456 525 36,000  Level FlightAware Transoceanic
09:33AM 32.2492 -127.9308 253° West 456 525 36,000  Level FlightAware Transoceanic
09:34AM 32.2132 -128.0725 253° West 456 525 36,000  Level FlightAware Transoceanic
09:35AM 32.1770 -128.2142 253° West 456 525 36,000  Level FlightAware Transoceanic
09:36AM 32.1406 -128.3557 253° West 456 525 36,000  Level FlightAware Transoceanic
09:37AM 32.1040 -128.4971 253° West 456 525 36,000  Level FlightAware Transoceanic
09:38AM 32.0674 -128.6384 253° West 456 525 36,000  Level FlightAware Transoceanic
09:38AM 32.0667 -128.6667 253° West 455 524 36,000  Level Oakland Oceanic (ODAPS)
09:39AM 32.0305 -128.7796 253° West 456 525 36,000  Level FlightAware Transoceanic
09:40AM 31.9935 -128.9206 253° West 456 525 36,000  Level FlightAware Transoceanic
09:41AM 31.9563 -129.0616 253° West 456 525 36,000  Level FlightAware Transoceanic
09:42AM 31.9190 -129.2024 253° West 456 525 36,000  Level FlightAware Transoceanic
09:43AM 31.8815 -129.3432 253° West 456 525 36,000  Level FlightAware Transoceanic
09:44AM 31.8433 -129.5052 252° West 455 524 36,000  Level FlightAware Transoceanic
09:45AM 31.8055 -129.6446 252° West 455 524 36,000  Level FlightAware Transoceanic
09:46AM 31.7675 -129.7838 252° West 455 524 36,000  Level FlightAware Transoceanic
09:47AM 31.7295 -129.9229 252° West 455 524 36,000  Level FlightAware Transoceanic
09:48AM 31.6912 -130.0620 252° West 455 524 36,000  Level FlightAware Transoceanic
09:49AM 31.6529 -130.2009 252° West 455 524 36,000  Level FlightAware Transoceanic
09:50AM 31.6143 -130.3396 252° West 455 524 36,000  Level FlightAware Transoceanic
09:51AM 31.5757 -130.4783 252° West 455 524 36,000  Level FlightAware Transoceanic
09:52AM 31.5368 -130.6169 252° West 455 524 36,000  Level FlightAware Transoceanic
09:52AM 31.5333 -130.6333 252° West 452 520 36,000  Level Oakland Oceanic (ODAPS)
09:53AM 31.4979 -130.7553 252° West 455 524 36,000  Level FlightAware Transoceanic
09:54AM 31.4587 -130.8936 252° West 455 524 36,000  Level FlightAware Transoceanic
09:55AM 31.4195 -131.0318 252° West 455 524 36,000  Level FlightAware Transoceanic
09:56AM 31.3801 -131.1699 251° West 455 524 36,000  Level FlightAware Transoceanic
09:57AM 31.3405 -131.3079 251° West 455 524 36,000  Level FlightAware Transoceanic
09:58AM 31.2991 -131.4532 251° West 452 520 36,000  Level FlightAware Transoceanic
09:59AM 31.2596 -131.5895 251° West 452 520 36,000  Level FlightAware Transoceanic
10:00AM 31.2199 -131.7256 251° West 452 520 36,000  Level FlightAware Transoceanic
10:01AM 31.1801 -131.8616 251° West 452 520 36,000  Level FlightAware Transoceanic
10:02AM 31.1401 -131.9975 251° West 452 520 36,000  Level FlightAware Transoceanic
10:02AM 31.1000 -132.1333 251° West 443 510 36,000  Level Oakland Oceanic (ODAPS)
10:03AM 31.1000 -132.1333 251° West 452 520 36,000  Level FlightAware Transoceanic
10:04AM 31.0593 -132.2717 251° West 452 520 36,000  Level FlightAware Transoceanic
10:05AM 31.0184 -132.4099 251° West 452 520 36,000  Level FlightAware Transoceanic
10:05AM 30.9833 -132.5500 251° West 442 509 36,000  Level Oakland Oceanic (ODAPS)
10:06AM 30.9774 -132.5481 251° West 452 520 36,000  Level FlightAware Transoceanic
10:07AM 30.9363 -132.6861 251° West 452 520 36,000  Level FlightAware Transoceanic
10:08AM 30.8950 -132.8240 251° West 452 520 36,000  Level FlightAware Transoceanic
10:09AM 30.8581 -132.9467 251° West 443 510 36,000  Level FlightAware Transoceanic
10:10AM 30.8173 -133.0819 251° West 443 510 36,000  Level FlightAware Transoceanic
10:11AM 30.7763 -133.2170 251° West 443 510 36,000  Level FlightAware Transoceanic
10:12AM 30.7384 -133.3603 250° West 442 509 36,000  Level FlightAware Transoceanic
10:13AM 30.6971 -133.4949 250° West 442 509 36,000  Level FlightAware Transoceanic
10:14AM 30.6557 -133.6294 250° West 442 509 36,000  Level FlightAware Transoceanic
10:15AM 30.6141 -133.7638 250° West 442 509 36,000  Level FlightAware Transoceanic
10:16AM 30.5724 -133.8981 250° West 442 509 36,000  Level FlightAware Transoceanic
10:17AM 30.5305 -134.0323 250° West 442 509 36,000  Level FlightAware Transoceanic
10:18AM 30.4885 -134.1664 250° West 442 509 36,000  Level FlightAware Transoceanic
10:19AM 30.4464 -134.3003 250° West 442 509 36,000  Level FlightAware Transoceanic
10:19AM 30.4167 -134.4000 250° West 441 507 36,000  Level Oakland Oceanic (ODAPS)
10:20AM 30.4041 -134.4341 250° West 442 509 36,000  Level FlightAware Transoceanic
10:21AM 30.3617 -134.5679 250° West 442 509 36,000  Level FlightAware Transoceanic
10:22AM 30.3192 -134.7015 250° West 442 509 36,000  Level FlightAware Transoceanic
10:23AM 30.2765 -134.8349 250° West 442 509 36,000  Level FlightAware Transoceanic
10:24AM 30.2337 -134.9683 250° West 442 509 36,000  Level FlightAware Transoceanic
10:25AM 30.2018 -135.0721 250° West 441 507 36,000  Level FlightAware Transoceanic
10:26AM 30.1584 -135.2061 249° West 441 507 36,000  Level FlightAware Transoceanic
10:27AM 30.1149 -135.3400 249° West 441 507 36,000  Level FlightAware Transoceanic
10:28AM 30.0712 -135.4739 249° West 441 507 36,000  Level FlightAware Transoceanic
10:29AM 30.0274 -135.6076 249° West 441 507 36,000  Level FlightAware Transoceanic
10:30AM 29.9835 -135.7411 249° West 441 507 36,000  Level FlightAware Transoceanic
10:31AM 29.9394 -135.8746 249° West 441 507 36,000  Level FlightAware Transoceanic
10:32AM 29.8952 -136.0080 249° West 441 507 36,000  Level FlightAware Transoceanic
10:33AM 29.8509 -136.1412 249° West 441 507 36,000  Level FlightAware Transoceanic
10:33AM 29.8167 -136.2333 249° West 441 507 36,000  Level Oakland Oceanic (ODAPS)
10:34AM 29.8064 -136.2743 249° West 441 507 36,000  Level FlightAware Transoceanic
10:35AM 29.7618 -136.4073 249° West 441 507 36,000  Level FlightAware Transoceanic
10:36AM 29.7171 -136.5402 249° West 441 507 36,000  Level FlightAware Transoceanic
10:37AM 29.6722 -136.6729 249° West 441 507 36,000  Level FlightAware Transoceanic
10:38AM 29.6272 -136.8056 249° West 441 507 36,000  Level FlightAware Transoceanic
10:39AM 29.5821 -136.9381 249° West 441 507 36,000  Level FlightAware Transoceanic
10:40AM 29.5117 -137.1364 249° West 441 507 36,000  Level FlightAware Transoceanic
10:41AM 29.4677 -137.2649 248° West 441 507 36,000  Level FlightAware Transoceanic
10:42AM 29.4235 -137.3934 248° West 441 507 36,000  Level FlightAware Transoceanic
10:43AM 29.3792 -137.5217 248° West 441 507 36,000  Level FlightAware Transoceanic
10:44AM 29.3347 -137.6499 248° West 441 507 36,000  Level FlightAware Transoceanic
10:45AM 29.2902 -137.7781 248° West 441 507 36,000  Level FlightAware Transoceanic
10:46AM 29.2455 -137.9061 248° West 441 507 36,000  Level FlightAware Transoceanic
10:47AM 29.2007 -138.0339 248° West 441 507 36,000  Level FlightAware Transoceanic
10:47AM 29.2167 -138.0167 248° West 429 494 36,000  Level Oakland Oceanic (ODAPS)
10:48AM 29.1558 -138.1617 248° West 441 507 36,000  Level FlightAware Transoceanic
10:49AM 29.1108 -138.2894 248° West 441 507 36,000  Level FlightAware Transoceanic
10:50AM 29.0656 -138.4169 248° West 441 507 36,000  Level FlightAware Transoceanic
10:51AM 29.0203 -138.5444 248° West 441 507 36,000  Level FlightAware Transoceanic
10:52AM 28.9749 -138.6717 248° West 441 507 36,000  Level FlightAware Transoceanic
10:53AM 28.9367 -138.7912 247° West 429 494 36,000  Level FlightAware Transoceanic
10:54AM 28.8896 -138.9198 247° West 429 494 36,000  Level FlightAware Transoceanic
10:55AM 28.8424 -139.0484 247° West 429 494 36,000  Level FlightAware Transoceanic
10:56AM 28.7950 -139.1768 247° West 429 494 36,000  Level FlightAware Transoceanic
10:57AM 28.7476 -139.3051 247° West 429 494 36,000  Level FlightAware Transoceanic
10:58AM 28.7000 -139.4333 247° West 429 494 36,000  Level FlightAware Transoceanic
10:58AM 28.7000 -139.4333 247° West 448 516 36,000  Level Oakland Oceanic (ODAPS)
10:59AM 28.6521 -139.5634 247° West 429 494 36,000  Level FlightAware Transoceanic
11:00AM 28.6041 -139.6934 247° West 429 494 36,000  Level FlightAware Transoceanic
11:01AM 28.5560 -139.8233 247° West 429 494 36,000  Level FlightAware Transoceanic
11:01AM 28.5667 -139.7833 247° West 447 514 36,000  Level Oakland Oceanic (ODAPS)
11:02AM 28.5078 -139.9530 247° West 429 494 36,000  Level FlightAware Transoceanic
11:03AM 28.4594 -140.0827 247° West 429 494 36,000  Level FlightAware Transoceanic
11:04AM 28.4109 -140.2122 247° West 429 494 36,000  Level FlightAware Transoceanic
11:05AM 28.3623 -140.3416 247° West 448 516 36,000  Level FlightAware Transoceanic
11:06AM 28.3136 -140.4708 247° West 448 516 36,000  Level FlightAware Transoceanic
11:07AM 28.2743 -140.5650 247° West 447 514 36,000  Level FlightAware Transoceanic
11:08AM 28.2251 -140.6949 247° West 447 514 36,000  Level FlightAware Transoceanic
11:09AM 28.1758 -140.8246 247° West 447 514 36,000  Level FlightAware Transoceanic
11:10AM 28.1264 -140.9542 247° West 447 514 36,000  Level FlightAware Transoceanic
11:11AM 28.0769 -141.0837 247° West 447 514 36,000  Level FlightAware Transoceanic
11:12AM 28.0272 -141.2131 246° West 447 514 36,000  Level FlightAware Transoceanic
11:13AM 27.9775 -141.3424 246° West 447 514 36,000  Level FlightAware Transoceanic
11:14AM 27.9276 -141.4715 246° West 447 514 36,000  Level FlightAware Transoceanic
11:15AM 27.8776 -141.6005 246° West 447 514 36,000  Level FlightAware Transoceanic
11:15AM 27.9000 -141.5833 246° West 451 519 36,000  Level Oakland Oceanic (ODAPS)
11:16AM 27.8274 -141.7294 246° West 447 514 36,000  Level FlightAware Transoceanic
11:17AM 27.7772 -141.8582 246° West 447 514 36,000  Level FlightAware Transoceanic
11:18AM 27.7268 -141.9869 246° West 447 514 36,000  Level FlightAware Transoceanic
11:19AM 27.6763 -142.1154 246° West 447 514 36,000  Level FlightAware Transoceanic
11:20AM 27.6257 -142.2439 246° West 447 514 36,000  Level FlightAware Transoceanic
11:21AM 27.5938 -142.3580 246° West 451 519 36,000  Level FlightAware Transoceanic
11:22AM 27.5423 -142.4867 246° West 451 519 36,000  Level FlightAware Transoceanic
11:23AM 27.4907 -142.6153 246° West 451 519 36,000  Level FlightAware Transoceanic
11:24AM 27.4390 -142.7437 246° West 451 519 36,000  Level FlightAware Transoceanic
11:25AM 27.3872 -142.8720 246° West 451 519 36,000  Level FlightAware Transoceanic
11:26AM 27.3353 -143.0002 245° Southwest 451 519 36,000  Level FlightAware Transoceanic
11:27AM 27.2832 -143.1283 245° Southwest 451 519 36,000  Level FlightAware Transoceanic
11:28AM 27.2311 -143.2563 245° Southwest 451 519 36,000  Level FlightAware Transoceanic
11:29AM 27.1788 -143.3841 245° Southwest 451 519 36,000  Level FlightAware Transoceanic
11:29AM 27.1833 -143.3500 245° Southwest 453 521 36,000  Level Oakland Oceanic (ODAPS)
11:30AM 27.1264 -143.5119 245° Southwest 451 519 36,000  Level FlightAware Transoceanic
11:31AM 27.0739 -143.6395 245° Southwest 451 519 36,000  Level FlightAware Transoceanic
11:32AM 27.0213 -143.7670 245° Southwest 451 519 36,000  Level FlightAware Transoceanic
11:33AM 26.9685 -143.8943 245° Southwest 451 519 36,000  Level FlightAware Transoceanic
11:34AM 26.9157 -144.0216 245° Southwest 451 519 36,000  Level FlightAware Transoceanic
11:35AM 26.8661 -144.1240 245° Southwest 453 521 36,000  Level FlightAware Transoceanic
11:36AM 26.8129 -144.2525 245° Southwest 453 521 36,000  Level FlightAware Transoceanic
11:37AM 26.7595 -144.3810 245° Southwest 453 521 36,000  Level FlightAware Transoceanic
11:38AM 26.7060 -144.5093 245° Southwest 453 521 36,000  Level FlightAware Transoceanic
11:39AM 26.6523 -144.6375 245° Southwest 453 521 36,000  Level FlightAware Transoceanic
11:40AM 26.5986 -144.7656 245° Southwest 453 521 36,000  Level FlightAware Transoceanic
11:41AM 26.5447 -144.8936 245° Southwest 453 521 36,000  Level FlightAware Transoceanic
11:42AM 26.4908 -145.0214 245° Southwest 453 521 36,000  Level FlightAware Transoceanic
11:42AM 26.4500 -145.1167 245° Southwest 457 526 36,000  Level Oakland Oceanic (ODAPS)
11:43AM 26.4367 -145.1492 245° Southwest 453 521 36,000  Level FlightAware Transoceanic
11:44AM 26.3825 -145.2768 245° Southwest 453 521 36,000  Level FlightAware Transoceanic
11:45AM 26.3282 -145.4043 245° Southwest 453 521 36,000  Level FlightAware Transoceanic
11:46AM 26.2738 -145.5316 244° Southwest 453 521 36,000  Level FlightAware Transoceanic
11:47AM 26.2192 -145.6589 244° Southwest 453 521 36,000  Level FlightAware Transoceanic
11:48AM 26.1646 -145.7860 244° Southwest 453 521 36,000  Level FlightAware Transoceanic
11:49AM 26.1132 -145.9049 244° Southwest 457 526 36,000  Level FlightAware Transoceanic
11:50AM 26.0567 -146.0359 244° Southwest 457 526 36,000  Level FlightAware Transoceanic
11:51AM 26.0000 -146.1667 244° Southwest 457 526 36,000  Level FlightAware Transoceanic
11:51AM 26.0000 -146.1667 244° Southwest 466 536 36,000  Level Oakland Oceanic (ODAPS)
11:52AM 25.9431 -146.2980 244° Southwest 457 526 36,000  Level FlightAware Transoceanic
11:53AM 25.8860 -146.4293 244° Southwest 457 526 36,000  Level FlightAware Transoceanic
11:54AM 25.8289 -146.5604 244° Southwest 457 526 36,000  Level FlightAware Transoceanic
11:55AM 25.7716 -146.6914 244° Southwest 457 526 36,000  Level FlightAware Transoceanic
11:56AM 25.7142 -146.8222 244° Southwest 457 526 36,000  Level FlightAware Transoceanic
11:56AM 25.7000 -146.8833 244° Southwest 467 537 36,000  Level Oakland Oceanic (ODAPS)
11:57AM 25.6567 -146.9530 244° Southwest 466 536 36,000  Level FlightAware Transoceanic
11:58AM 25.5990 -147.0836 244° Southwest 466 536 36,000  Level FlightAware Transoceanic
11:59AM 25.5413 -147.2140 244° Southwest 466 536 36,000  Level FlightAware Transoceanic
12:00PM 25.4834 -147.3444 244° Southwest 466 536 36,000  Level FlightAware Transoceanic
12:01PM 25.4255 -147.4746 244° Southwest 466 536 36,000  Level FlightAware Transoceanic
12:02PM 25.3674 -147.6047 244° Southwest 466 536 36,000  Level FlightAware Transoceanic
12:03PM 25.3548 -147.6575 244° Southwest 467 537 36,000  Level FlightAware Transoceanic
12:04PM 25.2969 -147.7861 243° Southwest 467 537 36,000  Level FlightAware Transoceanic
12:05PM 25.2388 -147.9145 243° Southwest 467 537 36,000  Level FlightAware Transoceanic
12:06PM 25.1807 -148.0429 243° Southwest 467 537 36,000  Level FlightAware Transoceanic
12:07PM 25.1224 -148.1711 243° Southwest 467 537 36,000  Level FlightAware Transoceanic
12:08PM 25.0640 -148.2992 243° Southwest 467 537 36,000  Level FlightAware Transoceanic
12:09PM 25.0056 -148.4272 243° Southwest 467 537 36,000  Level FlightAware Transoceanic
12:10PM 24.9470 -148.5550 243° Southwest 467 537 36,000  Level FlightAware Transoceanic
12:10PM 24.9000 -148.6500 243° Southwest 470 541 36,000  Level Oakland Oceanic (ODAPS)
12:11PM 24.8883 -148.6827 243° Southwest 467 537 36,000  Level FlightAware Transoceanic
12:12PM 24.8295 -148.8103 243° Southwest 467 537 36,000  Level FlightAware Transoceanic
12:13PM 24.7705 -148.9378 243° Southwest 467 537 36,000  Level FlightAware Transoceanic
12:14PM 24.7115 -149.0652 243° Southwest 467 537 36,000  Level FlightAware Transoceanic
12:15PM 24.6524 -149.1924 243° Southwest 467 537 36,000  Level FlightAware Transoceanic
12:16PM 24.5932 -149.3196 243° Southwest 467 537 36,000  Level FlightAware Transoceanic
12:17PM 24.4836 -149.5483 243° Southwest 470 541 36,000  Level FlightAware Transoceanic
12:18PM 24.4237 -149.6761 243° Southwest 470 541 36,000  Level FlightAware Transoceanic
12:19PM 24.3636 -149.8038 243° Southwest 470 541 36,000  Level FlightAware Transoceanic
12:20PM 24.3035 -149.9314 243° Southwest 470 541 36,000  Level FlightAware Transoceanic
12:21PM 24.2433 -150.0589 243° Southwest 470 541 36,000  Level FlightAware Transoceanic
12:22PM 24.1829 -150.1862 243° Southwest 470 541 36,000  Level FlightAware Transoceanic
12:23PM 24.1225 -150.3135 242° Southwest 470 541 36,000  Level FlightAware Transoceanic
12:24PM 24.0619 -150.4406 242° Southwest 470 541 36,000  Level FlightAware Transoceanic
12:24PM 24.0833 -150.4167 242° Southwest 472 543 36,000  Level Oakland Oceanic (ODAPS)
12:25PM 24.0012 -150.5676 242° Southwest 470 541 36,000  Level FlightAware Transoceanic
12:26PM 23.9405 -150.6945 242° Southwest 470 541 36,000  Level FlightAware Transoceanic
12:27PM 23.8796 -150.8212 242° Southwest 470 541 36,000  Level FlightAware Transoceanic
12:28PM 23.8186 -150.9478 242° Southwest 470 541 36,000  Level FlightAware Transoceanic
12:29PM 23.7575 -151.0744 242° Southwest 470 541 36,000  Level FlightAware Transoceanic
12:30PM 23.7103 -151.1854 242° Southwest 472 543 36,000  Level FlightAware Transoceanic
12:31PM 23.6478 -151.3131 242° Southwest 472 543 36,000  Level FlightAware Transoceanic
12:32PM 23.5851 -151.4407 242° Southwest 472 543 36,000  Level FlightAware Transoceanic
12:33PM 23.5224 -151.5681 242° Southwest 472 543 36,000  Level FlightAware Transoceanic
12:34PM 23.4595 -151.6954 242° Southwest 472 543 36,000  Level FlightAware Transoceanic
12:35PM 23.3965 -151.8226 242° Southwest 472 543 36,000  Level FlightAware Transoceanic
12:36PM 23.3335 -151.9497 242° Southwest 472 543 36,000  Level FlightAware Transoceanic
12:37PM 23.2703 -152.0767 242° Southwest 472 543 36,000  Level FlightAware Transoceanic
12:38PM 23.2071 -152.2035 241° Southwest 472 543 36,000  Level FlightAware Transoceanic
12:38PM 23.2333 -152.1667 241° Southwest 472 543 36,000  Level Oakland Oceanic (ODAPS)
12:39PM 23.1437 -152.3302 241° Southwest 472 543 36,000  Level FlightAware Transoceanic
12:40PM 23.0802 -152.4568 241° Southwest 472 543 36,000  Level FlightAware Transoceanic
12:41PM 23.0167 -152.5833 242° Southwest 472 543 36,000  Level FlightAware Transoceanic
12:42PM 22.9580 -152.7020 242° Southwest 472 543 36,000  Level FlightAware Transoceanic
12:42PM 22.9833 -152.6667 242° Southwest 470 541 36,000  Level Honolulu Center
12:43PM 22.8993 -152.8206 242° Southwest 472 543 36,000  Level FlightAware Transoceanic
12:43PM 22.9167 -152.7833 238° Southwest 470 541 36,000  Level Honolulu Center
12:44PM 22.8404 -152.9391 242° Southwest 472 543 36,000  Level FlightAware Transoceanic
12:44PM 22.8667 -152.9167 248° West 450 518 36,000  Level Honolulu Center
12:45PM 22.7815 -153.0575 242° Southwest 472 543 36,000  Level FlightAware Transoceanic
12:45PM 22.8333 -153.0500 255° West 470 541 36,000  Level Honolulu Center
12:46PM 22.7225 -153.1758 242° Southwest 472 543 36,000  Level FlightAware Transoceanic
12:46PM 22.7833 -153.1833 248° West 470 541 36,000  Level Honolulu Center
12:47PM 22.6634 -153.2939 242° Southwest 472 543 36,000  Level FlightAware Transoceanic
12:47PM 22.7500 -153.3167 255° West 470 541 36,000  Level Honolulu Center
12:48PM 22.7000 -153.4500 248° West 480 552 36,000  Level Honolulu Center
12:49PM 22.6667 -153.5833 255° West 470 541 36,000  Level Honolulu Center
12:50PM 22.6333 -153.7167 255° West 470 541 36,000  Level Honolulu Center
12:51PM 22.5833 -153.8667 250° West 480 552 36,000  Level Honolulu Center
12:52PM 22.5500 -154.0000 255° West 470 541 36,000  Level Honolulu Center
12:53PM 22.5000 -154.1333 248° West 470 541 36,000  Level Honolulu Center
12:54PM 22.4667 -154.2667 255° West 470 541 36,000  Level Honolulu Center
12:55PM 22.4167 -154.4000 248° West 470 541 36,000  Level Honolulu Center
12:56PM 22.3833 -154.5333 255° West 470 541 36,000  Level Honolulu Center
12:57PM 22.3333 -154.6667 248° West 470 541 36,000  Level Honolulu Center
12:58PM 22.2833 -154.8000 248° West 470 541 36,000  Level Honolulu Center
12:59PM 22.2500 -154.9333 255° West 470 541 36,000  Level Honolulu Center
01:00PM 22.2000 -155.0667 248° West 470 541 36,000  Level Honolulu Center
01:01PM 22.1667 -155.2000 255° West 470 541 36,000  Level Honolulu Center
01:02PM 22.1167 -155.3333 248° West 470 541 36,000  Level Honolulu Center
01:03PM 22.0833 -155.4667 255° West 460 529 36,000 -60 Level Honolulu Center
01:04PM 22.0333 -155.6000 248° West 460 529 35,900  Descending Honolulu Center
01:05PM 22.0000 -155.7333 255° West 470 541 36,000  Climbing Honolulu Center
01:06PM 21.9500 -155.8500 245° Southwest 470 541 36,000 -600 Level Honolulu Center
01:07PM 21.9167 -155.9833 255° West 470 541 34,900 -1,860 Descending Honolulu Center
01:08PM 21.8667 -156.1167 248° West 460 529 32,300 -2,520 Descending Honolulu Center
01:09PM 21.8167 -156.2500 248° West 460 529 29,900 -2,280 Descending Honolulu Center
01:10PM 21.7833 -156.3833 255° West 450 518 27,800 -2,220 Descending Honolulu Center
01:11PM 21.7500 -156.5000 253° West 430 495 25,500 -2,220 Descending Honolulu Center
01:12PM 21.7000 -156.6167 245° Southwest 420 483 23,400 -2,100 Descending Honolulu Center
01:13PM 21.6667 -156.7167 250° West 420 483 21,300 -2,280 Descending Honolulu Center
01:14PM 21.6167 -156.8500 248° West 400 460 18,900 -2,280 Descending Honolulu Center
01:15PM 21.5833 -156.9667 253° West 390 449 16,800 -2,160 Descending Honolulu Center
01:16PM 21.5500 -157.0667 250° West 380 437 14,600 -1,140 Descending Honolulu Center
01:21PM 21.3810 -157.5740 250° West 289 333 9,800 -960 Descending FlightAware
01:22PM 21.3620 -157.6080 239° Southwest 286 329 9,200 -1,320 Descending FlightAware
01:22PM 21.3320 -157.6670 241° Southwest 280 322 8,100 -1,140 Descending FlightAware
01:23PM 21.3170 -157.6970 242° Southwest 272 313 7,900 -300 Descending FlightAware
01:23PM 21.3100 -157.7100 240° Southwest 276 318 7,900 -240 Level FlightAware
01:23PM 21.3030 -157.7250 243° Southwest 281 323 7,800  Descending FlightAware
01:24PM 21.2730 -157.7840 241° Southwest 272 313 7,900 60 Climbing FlightAware
01:24PM 21.2590 -157.8120 242° Southwest 272 313 7,900 -120 Level FlightAware
01:25PM 21.2400 -157.8470 240° Southwest 266 306 7,800 -240 Descending FlightAware
01:25PM 21.2200 -157.8850 241° Southwest 260 299 7,700 -1,500 Descending FlightAware
01:26PM 21.2050 -157.9170 243° Southwest 246 283 6,200 -2,640 Descending FlightAware
01:26PM 21.1940 -157.9410 244° Southwest 241 277 5,500 -960 Descending FlightAware
01:27PM 21.1830 -157.9650 244° Southwest 241 277 5,500  Level FlightAware